Detall de PIREP

Printer-friendly versionPDF version

[2012/11/28 12:42:00]
Flight IATA:CT3233
Pilot Number:042
Company ICAO:CAT
Aircraft Type:B738/F
PAX:118
Departing Airport: LEMD
Destination Airport: LEPA
Alternate Airport:LEBL
Online: VATSIM
Route:NANDO UM871 GODOX
Flight Level:F300
No Slew and time accel
No pause
Crash detect
Detect pilot in Cockpit between each 30 and 45 minutes
12:42 Zero fuel Weight: 115601 Lbs, Fuel Weight: 31302 Lbs
12:42 VATSIM:LEMD 281230Z 24013KT 180V260 9999 SCT055 08/M01 Q1008 NOSIG
12:42 VATSIM:LEPA 281230Z 29008KT 250V320 9999 FEW018CB BKN025 12/08 Q0996 NOSIG
12:42 VOICE CATALONIAN/ROUTE IATA CT3233
12:47 Parking Brakes off
12:58 Take-off
12:58 Take off Weight: 145600 Lbs
12:58 Wind: 229º @ 012 Knots Heading: 141º
12:58 POS N40º 28´ 39´´ W003º 32´ 27´´
12:58 Gear Up: 155 Knots
12:58 Flaps:5 at 155 Knots
12:59 Flaps:4 at 170 Knots
12:59 Flaps:3 at 177 Knots
13:00 Flaps:2 at 189 Knots
13:02 Flaps:0 at 244 Knots
13:13 Wind:343º@082 Knots Heading: 098º Ground Speed: 493 Knots Altitude 29520 ft
13:13 TOC
13:13 Fuel Weight: 26729 Lb
13:28 Wind:358º@043 Knots Heading: 081º Ground Speed: 454 Knots Altitude 29642 ft
13:30 TOD
13:30 Fuel Weight: 25174 Lb
13:43 Wind:342º@023 Knots Heading: 066º Ground Speed: 262 Knots Altitude 6981 ft
13:57 Flaps:1 at 209 Knots
13:57 Flaps:2 at 196 Knots
13:58 Wind:295º@007 Knots Heading: 186º Ground Speed: 209 Knots Altitude 3914 ft
13:59 Flaps:3 at 198 Knots
14:03 Flaps:4 at 197 Knots
14:04 Gear Down: 187 Knots
14:04 Flaps:5 at 187 Knots
14:05 Flaps:6 at 173 Knots
14:05 Flaps:7 at 173 Knots
14:06 Flaps:8 at 138 Knots
14:09 TouchDown:Rate -278 ft/min Speed: 133 Knots
14:09 VATSIM:LEPA 281400Z 31011KT 9999 FEW018TCU BKN035 13/08 Q0996 NOSIG
14:09 Land
14:09 Wind:281º@008 Knots
14:09 Heading: 234º
14:09 Flight Duration: 01:11
14:09 Landing Weight: 138036 Lbs
14:09 POS N39º 33´ 21´´ E002º 43´ 43´´
14:12 Parking brakes on
14:12 Block to Block Duration: 01:25
14:12 Final Fuel: 22220 Lbls
14:12 Spent Fuel: 9082 Lbls
14:12 Flight Length: 284 NM
14:12 TOD Land Length: 173 NM

Exportar CSV

Powered by Drupal - Modified by Danger4k